sensor_id;sensor_type;location;lat;lon;timestamp;P1;durP1;ratioP1;P2;durP2;ratioP2
21820;SDS011;11073;48.586;12.066;2023-03-18T00:01:38;15.75;;;7.35;;
21820;SDS011;11073;48.586;12.066;2023-03-18T00:04:27;10.73;;;7.20;;
21820;SDS011;11073;48.586;12.066;2023-03-18T00:07:17;15.73;;;7.18;;
21820;SDS011;11073;48.586;12.066;2023-03-18T00:10:08;11.85;;;7.20;;
21820;SDS011;11073;48.586;12.066;2023-03-18T00:12:58;14.30;;;7.53;;
21820;SDS011;11073;48.586;12.066;2023-03-18T00:15:49;14.57;;;7.33;;
21820;SDS011;11073;48.586;12.066;2023-03-18T00:18:38;17.30;;;8.40;;
21820;SDS011;11073;48.586;12.066;2023-03-18T00:21:28;14.67;;;7.27;;
21820;SDS011;11073;48.586;12.066;2023-03-18T00:24:17;14.33;;;7.83;;
21820;SDS011;11073;48.586;12.066;2023-03-18T00:27:08;15.60;;;7.50;;
21820;SDS011;11073;48.586;12.066;2023-03-18T00:29:57;12.40;;;7.40;;
21820;SDS011;11073;48.586;12.066;2023-03-18T00:32:46;11.20;;;7.00;;
21820;SDS011;11073;48.586;12.066;2023-03-18T00:35:35;12.20;;;7.10;;
21820;SDS011;11073;48.586;12.066;2023-03-18T00:38:26;11.90;;;7.23;;
21820;SDS011;11073;48.586;12.066;2023-03-18T00:41:17;12.80;;;6.95;;
21820;SDS011;11073;48.586;12.066;2023-03-18T00:44:07;10.25;;;6.55;;
21820;SDS011;11073;48.586;12.066;2023-03-18T00:46:56;13.30;;;7.57;;
21820;SDS011;11073;48.586;12.066;2023-03-18T00:49:46;11.50;;;6.73;;
21820;SDS011;11073;48.586;12.066;2023-03-18T00:52:35;11.07;;;7.03;;
21820;SDS011;11073;48.586;12.066;2023-03-18T00:55:26;11.27;;;6.72;;
21820;SDS011;11073;48.586;12.066;2023-03-18T00:58:15;10.80;;;6.38;;
21820;SDS011;11073;48.586;12.066;2023-03-18T01:01:06;13.32;;;7.15;;
21820;SDS011;11073;48.586;12.066;2023-03-18T01:03:56;11.03;;;6.37;;
21820;SDS011;11073;48.586;12.066;2023-03-18T01:06:48;7.75;;;5.28;;
21820;SDS011;11073;48.586;12.066;2023-03-18T01:09:37;10.43;;;6.22;;
21820;SDS011;11073;48.586;12.066;2023-03-18T01:12:27;12.30;;;6.90;;
21820;SDS011;11073;48.586;12.066;2023-03-18T01:15:17;9.57;;;6.87;;
21820;SDS011;11073;48.586;12.066;2023-03-18T01:18:09;12.32;;;7.25;;
21820;SDS011;11073;48.586;12.066;2023-03-18T01:20:59;11.73;;;7.10;;
21820;SDS011;11073;48.586;12.066;2023-03-18T01:23:52;11.13;;;7.07;;
21820;SDS011;11073;48.586;12.066;2023-03-18T01:26:42;11.10;;;6.77;;
21820;SDS011;11073;48.586;12.066;2023-03-18T01:29:32;11.07;;;6.03;;
21820;SDS011;11073;48.586;12.066;2023-03-18T01:32:21;9.30;;;7.13;;
21820;SDS011;11073;48.586;12.066;2023-03-18T01:35:12;10.97;;;6.67;;
21820;SDS011;11073;48.586;12.066;2023-03-18T01:38:06;10.87;;;6.80;;
21820;SDS011;11073;48.586;12.066;2023-03-18T01:40:56;14.32;;;6.30;;
21820;SDS011;11073;48.586;12.066;2023-03-18T01:43:46;10.57;;;6.60;;
21820;SDS011;11073;48.586;12.066;2023-03-18T01:46:37;10.97;;;7.47;;
21820;SDS011;11073;48.586;12.066;2023-03-18T01:49:30;9.03;;;6.00;;
21820;SDS011;11073;48.586;12.066;2023-03-18T01:52:26;9.97;;;6.40;;
21820;SDS011;11073;48.586;12.066;2023-03-18T01:55:19;9.47;;;6.00;;
21820;SDS011;11073;48.586;12.066;2023-03-18T01:58:12;11.90;;;6.87;;
21820;SDS011;11073;48.586;12.066;2023-03-18T02:01:05;13.97;;;7.73;;
21820;SDS011;11073;48.586;12.066;2023-03-18T02:04:00;13.57;;;7.40;;
21820;SDS011;11073;48.586;12.066;2023-03-18T02:06:50;11.60;;;6.83;;
21820;SDS011;11073;48.586;12.066;2023-03-18T02:09:40;13.53;;;6.93;;
21820;SDS011;11073;48.586;12.066;2023-03-18T02:12:30;11.67;;;6.90;;
21820;SDS011;11073;48.586;12.066;2023-03-18T02:15:23;9.87;;;5.80;;
21820;SDS011;11073;48.586;12.066;2023-03-18T02:18:15;10.77;;;6.50;;
21820;SDS011;11073;48.586;12.066;2023-03-18T02:21:11;12.97;;;7.27;;
21820;SDS011;11073;48.586;12.066;2023-03-18T02:24:16;18.93;;;9.07;;
21820;SDS011;11073;48.586;12.066;2023-03-18T02:27:17;16.43;;;8.20;;
21820;SDS011;11073;48.586;12.066;2023-03-18T02:30:09;19.83;;;8.40;;
21820;SDS011;11073;48.586;12.066;2023-03-18T02:33:03;18.50;;;8.40;;
21820;SDS011;11073;48.586;12.066;2023-03-18T02:35:54;15.67;;;8.00;;
21820;SDS011;11073;48.586;12.066;2023-03-18T02:38:53;17.92;;;8.32;;
21820;SDS011;11073;48.586;12.066;2023-03-18T02:41:44;14.93;;;8.43;;
21820;SDS011;11073;48.586;12.066;2023-03-18T02:44:36;16.90;;;8.80;;
21820;SDS011;11073;48.586;12.066;2023-03-18T02:47:54;17.70;;;9.70;;
21820;SDS011;11073;48.586;12.066;2023-03-18T02:50:47;19.80;;;10.17;;
21820;SDS011;11073;48.586;12.066;2023-03-18T02:53:37;23.70;;;11.87;;
21820;SDS011;11073;48.586;12.066;2023-03-18T02:56:27;20.43;;;10.67;;
21820;SDS011;11073;48.586;12.066;2023-03-18T02:59:18;19.63;;;9.77;;
21820;SDS011;11073;48.586;12.066;2023-03-18T03:02:09;18.90;;;10.17;;
21820;SDS011;11073;48.586;12.066;2023-03-18T03:04:59;18.57;;;10.67;;
21820;SDS011;11073;48.586;12.066;2023-03-18T03:07:48;17.00;;;9.30;;
21820;SDS011;11073;48.586;12.066;2023-03-18T03:10:39;14.17;;;8.67;;
21820;SDS011;11073;48.586;12.066;2023-03-18T03:13:29;15.83;;;8.67;;
21820;SDS011;11073;48.586;12.066;2023-03-18T03:16:18;17.53;;;8.70;;
21820;SDS011;11073;48.586;12.066;2023-03-18T03:19:09;17.07;;;9.00;;
21820;SDS011;11073;48.586;12.066;2023-03-18T03:21:59;17.70;;;9.13;;
21820;SDS011;11073;48.586;12.066;2023-03-18T03:24:48;15.27;;;8.60;;
21820;SDS011;11073;48.586;12.066;2023-03-18T03:27:37;17.53;;;8.43;;
21820;SDS011;11073;48.586;12.066;2023-03-18T03:30:26;13.43;;;7.67;;
21820;SDS011;11073;48.586;12.066;2023-03-18T03:33:16;12.07;;;7.33;;
21820;SDS011;11073;48.586;12.066;2023-03-18T03:36:07;16.63;;;8.17;;
21820;SDS011;11073;48.586;12.066;2023-03-18T03:38:59;14.03;;;7.73;;
21820;SDS011;11073;48.586;12.066;2023-03-18T03:41:48;9.17;;;6.53;;
21820;SDS011;11073;48.586;12.066;2023-03-18T03:44:37;12.83;;;7.03;;
21820;SDS011;11073;48.586;12.066;2023-03-18T03:47:28;13.00;;;7.33;;
21820;SDS011;11073;48.586;12.066;2023-03-18T03:50:17;11.17;;;7.40;;
21820;SDS011;11073;48.586;12.066;2023-03-18T03:53:08;13.37;;;7.07;;
21820;SDS011;11073;48.586;12.066;2023-03-18T03:55:58;11.00;;;6.87;;
21820;SDS011;11073;48.586;12.066;2023-03-18T03:58:46;12.57;;;7.43;;
21820;SDS011;11073;48.586;12.066;2023-03-18T04:01:37;12.20;;;7.07;;
21820;SDS011;11073;48.586;12.066;2023-03-18T04:04:26;12.27;;;6.77;;
21820;SDS011;11073;48.586;12.066;2023-03-18T04:07:16;10.80;;;6.93;;
21820;SDS011;11073;48.586;12.066;2023-03-18T04:10:09;11.33;;;6.23;;
21820;SDS011;11073;48.586;12.066;2023-03-18T04:13:00;11.23;;;6.90;;
21820;SDS011;11073;48.586;12.066;2023-03-18T04:15:49;12.77;;;6.70;;
21820;SDS011;11073;48.586;12.066;2023-03-18T04:18:39;11.10;;;7.00;;
21820;SDS011;11073;48.586;12.066;2023-03-18T04:21:29;9.37;;;6.93;;
21820;SDS011;11073;48.586;12.066;2023-03-18T04:24:18;10.80;;;6.57;;
21820;SDS011;11073;48.586;12.066;2023-03-18T04:27:08;12.17;;;6.97;;
21820;SDS011;11073;48.586;12.066;2023-03-18T04:29:59;12.20;;;7.00;;
21820;SDS011;11073;48.586;12.066;2023-03-18T04:32:56;12.30;;;7.10;;
21820;SDS011;11073;48.586;12.066;2023-03-18T04:35:49;9.43;;;6.73;;
21820;SDS011;11073;48.586;12.066;2023-03-18T04:38:39;9.43;;;6.43;;
21820;SDS011;11073;48.586;12.066;2023-03-18T04:41:29;11.00;;;6.47;;
21820;SDS011;11073;48.586;12.066;2023-03-18T04:44:23;9.23;;;5.87;;
21820;SDS011;11073;48.586;12.066;2023-03-18T04:47:13;10.63;;;6.10;;
21820;SDS011;11073;48.586;12.066;2023-03-18T04:50:04;8.43;;;6.07;;
21820;SDS011;11073;48.586;12.066;2023-03-18T04:52:57;9.37;;;6.07;;
21820;SDS011;11073;48.586;12.066;2023-03-18T04:55:48;9.93;;;5.67;;
21820;SDS011;11073;48.586;12.066;2023-03-18T04:58:41;10.03;;;6.23;;
21820;SDS011;11073;48.586;12.066;2023-03-18T05:01:37;10.57;;;6.73;;
21820;SDS011;11073;48.586;12.066;2023-03-18T05:04:26;9.57;;;6.70;;
21820;SDS011;11073;48.586;12.066;2023-03-18T05:07:15;7.97;;;5.90;;
21820;SDS011;11073;48.586;12.066;2023-03-18T05:10:15;10.97;;;6.80;;
21820;SDS011;11073;48.586;12.066;2023-03-18T05:13:07;11.27;;;6.47;;
21820;SDS011;11073;48.586;12.066;2023-03-18T05:15:57;10.63;;;6.67;;
21820;SDS011;11073;48.586;12.066;2023-03-18T05:18:47;9.47;;;6.67;;
21820;SDS011;11073;48.586;12.066;2023-03-18T05:21:36;9.47;;;6.40;;
21820;SDS011;11073;48.586;12.066;2023-03-18T05:24:26;10.93;;;6.80;;
21820;SDS011;11073;48.586;12.066;2023-03-18T05:27:15;11.40;;;6.30;;
21820;SDS011;11073;48.586;12.066;2023-03-18T05:30:16;10.03;;;6.53;;
21820;SDS011;11073;48.586;12.066;2023-03-18T05:33:09;10.03;;;6.80;;
21820;SDS011;11073;48.586;12.066;2023-03-18T05:36:07;9.33;;;6.53;;
21820;SDS011;11073;48.586;12.066;2023-03-18T05:39:03;9.33;;;6.57;;
21820;SDS011;11073;48.586;12.066;2023-03-18T05:41:52;9.23;;;6.67;;
21820;SDS011;11073;48.586;12.066;2023-03-18T05:44:45;12.20;;;7.30;;
21820;SDS011;11073;48.586;12.066;2023-03-18T05:47:39;8.80;;;6.53;;
21820;SDS011;11073;48.586;12.066;2023-03-18T05:50:31;9.23;;;6.20;;
21820;SDS011;11073;48.586;12.066;2023-03-18T05:53:27;9.13;;;6.67;;
21820;SDS011;11073;48.586;12.066;2023-03-18T05:56:25;10.10;;;6.80;;
21820;SDS011;11073;48.586;12.066;2023-03-18T05:59:19;10.53;;;6.97;;
21820;SDS011;11073;48.586;12.066;2023-03-18T06:02:15;10.53;;;6.77;;
21820;SDS011;11073;48.586;12.066;2023-03-18T06:05:05;10.53;;;6.10;;
21820;SDS011;11073;48.586;12.066;2023-03-18T06:07:55;9.90;;;6.50;;
21820;SDS011;11073;48.586;12.066;2023-03-18T06:10:46;9.30;;;6.90;;
21820;SDS011;11073;48.586;12.066;2023-03-18T06:13:35;10.87;;;7.27;;
21820;SDS011;11073;48.586;12.066;2023-03-18T06:16:24;8.23;;;5.63;;
21820;SDS011;11073;48.586;12.066;2023-03-18T06:19:15;9.07;;;6.60;;
21820;SDS011;11073;48.586;12.066;2023-03-18T06:22:04;8.83;;;6.27;;
21820;SDS011;11073;48.586;12.066;2023-03-18T06:24:52;7.50;;;6.00;;
21820;SDS011;11073;48.586;12.066;2023-03-18T06:27:43;8.73;;;6.63;;
21820;SDS011;11073;48.586;12.066;2023-03-18T06:30:34;9.03;;;7.23;;
21820;SDS011;11073;48.586;12.066;2023-03-18T06:33:24;9.50;;;6.90;;
21820;SDS011;11073;48.586;12.066;2023-03-18T06:36:13;10.17;;;7.67;;
21820;SDS011;11073;48.586;12.066;2023-03-18T06:39:07;12.07;;;7.90;;
21820;SDS011;11073;48.586;12.066;2023-03-18T06:41:57;10.80;;;7.73;;
21820;SDS011;11073;48.586;12.066;2023-03-18T06:45:01;11.27;;;7.93;;
21820;SDS011;11073;48.586;12.066;2023-03-18T06:48:03;9.73;;;6.77;;
21820;SDS011;11073;48.586;12.066;2023-03-18T06:50:55;9.97;;;7.13;;
21820;SDS011;11073;48.586;12.066;2023-03-18T06:53:50;11.97;;;7.10;;
21820;SDS011;11073;48.586;12.066;2023-03-18T06:56:40;15.20;;;8.83;;
21820;SDS011;11073;48.586;12.066;2023-03-18T06:59:37;24.43;;;14.70;;
21820;SDS011;11073;48.586;12.066;2023-03-18T07:02:29;34.87;;;19.40;;
21820;SDS011;11073;48.586;12.066;2023-03-18T07:05:19;24.07;;;13.70;;
21820;SDS011;11073;48.586;12.066;2023-03-18T07:08:08;22.60;;;12.77;;
21820;SDS011;11073;48.586;12.066;2023-03-18T07:11:00;16.73;;;10.50;;
21820;SDS011;11073;48.586;12.066;2023-03-18T07:13:50;19.40;;;10.77;;
21820;SDS011;11073;48.586;12.066;2023-03-18T07:16:46;15.07;;;8.93;;
21820;SDS011;11073;48.586;12.066;2023-03-18T07:19:36;15.10;;;10.07;;
21820;SDS011;11073;48.586;12.066;2023-03-18T07:22:25;18.13;;;11.97;;
21820;SDS011;11073;48.586;12.066;2023-03-18T07:25:14;13.50;;;9.10;;
21820;SDS011;11073;48.586;12.066;2023-03-18T07:28:02;15.20;;;10.17;;
21820;SDS011;11073;48.586;12.066;2023-03-18T07:30:52;17.80;;;11.80;;
21820;SDS011;11073;48.586;12.066;2023-03-18T07:33:41;16.20;;;10.40;;
21820;SDS011;11073;48.586;12.066;2023-03-18T07:36:31;12.53;;;9.27;;
21820;SDS011;11073;48.586;12.066;2023-03-18T07:39:20;10.97;;;8.07;;
21820;SDS011;11073;48.586;12.066;2023-03-18T07:42:09;15.03;;;9.63;;
21820;SDS011;11073;48.586;12.066;2023-03-18T07:45:05;11.87;;;8.67;;
21820;SDS011;11073;48.586;12.066;2023-03-18T07:47:55;13.18;;;8.77;;
21820;SDS011;11073;48.586;12.066;2023-03-18T07:50:45;12.03;;;8.93;;
21820;SDS011;11073;48.586;12.066;2023-03-18T07:53:35;19.37;;;12.03;;
21820;SDS011;11073;48.586;12.066;2023-03-18T07:56:24;21.17;;;12.37;;
21820;SDS011;11073;48.586;12.066;2023-03-18T07:59:13;16.27;;;10.00;;
21820;SDS011;11073;48.586;12.066;2023-03-18T08:02:04;14.40;;;9.37;;
21820;SDS011;11073;48.586;12.066;2023-03-18T08:04:54;12.10;;;9.03;;
21820;SDS011;11073;48.586;12.066;2023-03-18T08:07:44;11.18;;;9.30;;
21820;SDS011;11073;48.586;12.066;2023-03-18T08:10:34;10.10;;;8.80;;
21820;SDS011;11073;48.586;12.066;2023-03-18T08:13:23;18.50;;;12.83;;
21820;SDS011;11073;48.586;12.066;2023-03-18T08:16:13;16.70;;;10.77;;
21820;SDS011;11073;48.586;12.066;2023-03-18T08:19:02;15.70;;;11.30;;
21820;SDS011;11073;48.586;12.066;2023-03-18T08:21:51;17.23;;;10.00;;
21820;SDS011;11073;48.586;12.066;2023-03-18T08:24:41;13.47;;;10.43;;
21820;SDS011;11073;48.586;12.066;2023-03-18T08:27:33;28.10;;;16.70;;
21820;SDS011;11073;48.586;12.066;2023-03-18T08:30:23;23.17;;;16.50;;
21820;SDS011;11073;48.586;12.066;2023-03-18T08:33:14;20.03;;;12.30;;
21820;SDS011;11073;48.586;12.066;2023-03-18T08:36:03;16.40;;;11.63;;
21820;SDS011;11073;48.586;12.066;2023-03-18T08:38:53;15.47;;;10.57;;
21820;SDS011;11073;48.586;12.066;2023-03-18T08:41:43;13.63;;;10.02;;
21820;SDS011;11073;48.586;12.066;2023-03-18T08:44:33;13.95;;;9.20;;
21820;SDS011;11073;48.586;12.066;2023-03-18T08:47:23;14.30;;;9.53;;
21820;SDS011;11073;48.586;12.066;2023-03-18T08:50:12;16.83;;;11.35;;
21820;SDS011;11073;48.586;12.066;2023-03-18T08:53:02;24.55;;;13.10;;
21820;SDS011;11073;48.586;12.066;2023-03-18T08:55:52;14.15;;;9.68;;
21820;SDS011;11073;48.586;12.066;2023-03-18T08:58:41;15.15;;;9.35;;
21820;SDS011;11073;48.586;12.066;2023-03-18T09:01:33;15.73;;;9.43;;
21820;SDS011;11073;48.586;12.066;2023-03-18T09:04:22;12.90;;;9.13;;
21820;SDS011;11073;48.586;12.066;2023-03-18T09:07:12;11.07;;;8.50;;
21820;SDS011;11073;48.586;12.066;2023-03-18T09:10:05;12.18;;;9.00;;
21820;SDS011;11073;48.586;12.066;2023-03-18T09:12:55;12.15;;;8.43;;
21820;SDS011;11073;48.586;12.066;2023-03-18T09:15:44;14.32;;;8.40;;
21820;SDS011;11073;48.586;12.066;2023-03-18T09:18:34;12.75;;;8.65;;
21820;SDS011;11073;48.586;12.066;2023-03-18T09:21:24;13.45;;;8.25;;
21820;SDS011;11073;48.586;12.066;2023-03-18T09:24:13;12.02;;;7.68;;
21820;SDS011;11073;48.586;12.066;2023-03-18T09:27:02;12.90;;;8.45;;
21820;SDS011;11073;48.586;12.066;2023-03-18T09:29:52;10.38;;;7.43;;
21820;SDS011;11073;48.586;12.066;2023-03-18T09:32:41;14.02;;;7.85;;
21820;SDS011;11073;48.586;12.066;2023-03-18T09:35:32;13.50;;;8.85;;
21820;SDS011;11073;48.586;12.066;2023-03-18T09:38:23;12.60;;;8.27;;
21820;SDS011;11073;48.586;12.066;2023-03-18T09:41:19;11.25;;;7.97;;
21820;SDS011;11073;48.586;12.066;2023-03-18T09:44:19;13.43;;;8.80;;
21820;SDS011;11073;48.586;12.066;2023-03-18T09:47:17;11.48;;;8.30;;
21820;SDS011;11073;48.586;12.066;2023-03-18T09:50:28;11.38;;;8.00;;
21820;SDS011;11073;48.586;12.066;2023-03-18T09:53:25;13.68;;;8.57;;
21820;SDS011;11073;48.586;12.066;2023-03-18T09:56:20;11.90;;;8.30;;
21820;SDS011;11073;48.586;12.066;2023-03-18T09:59:17;11.73;;;7.18;;
21820;SDS011;11073;48.586;12.066;2023-03-18T10:02:14;12.80;;;7.65;;
21820;SDS011;11073;48.586;12.066;2023-03-18T10:05:10;11.00;;;8.27;;
21820;SDS011;11073;48.586;12.066;2023-03-18T10:08:05;22.67;;;7.43;;
21820;SDS011;11073;48.586;12.066;2023-03-18T10:11:03;14.93;;;6.72;;
21820;SDS011;11073;48.586;12.066;2023-03-18T10:13:59;16.70;;;7.15;;
21820;SDS011;11073;48.586;12.066;2023-03-18T10:17:07;14.13;;;7.55;;
21820;SDS011;11073;48.586;12.066;2023-03-18T10:20:05;9.25;;;7.18;;
21820;SDS011;11073;48.586;12.066;2023-03-18T10:23:10;11.30;;;6.75;;
21820;SDS011;11073;48.586;12.066;2023-03-18T10:26:12;11.68;;;7.85;;
21820;SDS011;11073;48.586;12.066;2023-03-18T10:29:10;12.00;;;7.63;;
21820;SDS011;11073;48.586;12.066;2023-03-18T10:32:12;10.50;;;7.18;;
21820;SDS011;11073;48.586;12.066;2023-03-18T10:35:29;9.88;;;6.95;;
21820;SDS011;11073;48.586;12.066;2023-03-18T10:38:26;12.48;;;7.85;;
21820;SDS011;11073;48.586;12.066;2023-03-18T10:41:21;9.73;;;7.40;;
21820;SDS011;11073;48.586;12.066;2023-03-18T10:44:16;12.52;;;7.82;;
21820;SDS011;11073;48.586;12.066;2023-03-18T10:47:09;10.15;;;7.53;;
21820;SDS011;11073;48.586;12.066;2023-03-18T10:50:05;12.73;;;7.18;;
21820;SDS011;11073;48.586;12.066;2023-03-18T10:53:05;14.00;;;8.00;;
21820;SDS011;11073;48.586;12.066;2023-03-18T10:56:04;11.40;;;7.88;;
21820;SDS011;11073;48.586;12.066;2023-03-18T10:58:54;14.98;;;9.57;;
21820;SDS011;11073;48.586;12.066;2023-03-18T11:01:45;13.57;;;8.27;;
21820;SDS011;11073;48.586;12.066;2023-03-18T11:04:37;12.10;;;7.93;;
21820;SDS011;11073;48.586;12.066;2023-03-18T11:07:33;13.38;;;8.43;;
21820;SDS011;11073;48.586;12.066;2023-03-18T11:10:23;13.88;;;8.38;;
21820;SDS011;11073;48.586;12.066;2023-03-18T11:13:15;13.32;;;8.60;;
21820;SDS011;11073;48.586;12.066;2023-03-18T11:16:04;11.20;;;7.00;;
21820;SDS011;11073;48.586;12.066;2023-03-18T11:18:54;10.07;;;7.00;;
21820;SDS011;11073;48.586;12.066;2023-03-18T11:21:44;11.68;;;7.60;;
21820;SDS011;11073;48.586;12.066;2023-03-18T11:24:33;9.63;;;6.72;;
21820;SDS011;11073;48.586;12.066;2023-03-18T11:27:32;11.23;;;7.13;;
21820;SDS011;11073;48.586;12.066;2023-03-18T11:30:27;9.07;;;6.30;;
21820;SDS011;11073;48.586;12.066;2023-03-18T11:33:22;10.82;;;7.10;;
21820;SDS011;11073;48.586;12.066;2023-03-18T11:36:12;11.68;;;7.10;;
21820;SDS011;11073;48.586;12.066;2023-03-18T11:39:05;9.52;;;6.75;;
21820;SDS011;11073;48.586;12.066;2023-03-18T11:41:56;9.90;;;6.85;;
21820;SDS011;11073;48.586;12.066;2023-03-18T11:44:47;11.25;;;6.68;;
21820;SDS011;11073;48.586;12.066;2023-03-18T11:47:44;9.27;;;6.45;;
21820;SDS011;11073;48.586;12.066;2023-03-18T11:50:37;11.07;;;7.68;;
21820;SDS011;11073;48.586;12.066;2023-03-18T11:53:37;12.43;;;7.45;;
21820;SDS011;11073;48.586;12.066;2023-03-18T11:56:36;11.65;;;7.15;;
21820;SDS011;11073;48.586;12.066;2023-03-18T11:59:32;12.18;;;7.78;;
21820;SDS011;11073;48.586;12.066;2023-03-18T12:02:36;18.00;;;7.78;;
21820;SDS011;11073;48.586;12.066;2023-03-18T12:05:40;10.65;;;6.55;;
21820;SDS011;11073;48.586;12.066;2023-03-18T12:08:49;11.25;;;6.53;;
21820;SDS011;11073;48.586;12.066;2023-03-18T12:11:59;12.02;;;6.32;;
21820;SDS011;11073;48.586;12.066;2023-03-18T12:15:04;12.63;;;6.20;;
21820;SDS011;11073;48.586;12.066;2023-03-18T12:18:05;9.48;;;5.78;;
21820;SDS011;11073;48.586;12.066;2023-03-18T12:21:04;8.90;;;6.03;;
21820;SDS011;11073;48.586;12.066;2023-03-18T12:24:20;10.65;;;6.40;;
21820;SDS011;11073;48.586;12.066;2023-03-18T12:27:22;9.52;;;5.32;;
21820;SDS011;11073;48.586;12.066;2023-03-18T12:30:31;10.20;;;6.00;;
21820;SDS011;11073;48.586;12.066;2023-03-18T12:33:32;8.93;;;5.65;;
21820;SDS011;11073;48.586;12.066;2023-03-18T12:36:36;8.00;;;5.20;;
21820;SDS011;11073;48.586;12.066;2023-03-18T12:42:59;10.32;;;5.45;;
21820;SDS011;11073;48.586;12.066;2023-03-18T12:46:03;10.05;;;5.10;;
21820;SDS011;11073;48.586;12.066;2023-03-18T12:49:00;8.95;;;5.22;;
21820;SDS011;11073;48.586;12.066;2023-03-18T12:51:59;10.90;;;5.15;;
21820;SDS011;11073;48.586;12.066;2023-03-18T12:54:55;7.93;;;4.40;;
21820;SDS011;11073;48.586;12.066;2023-03-18T12:57:49;6.55;;;4.53;;
21820;SDS011;11073;48.586;12.066;2023-03-18T13:00:44;8.43;;;4.32;;
21820;SDS011;11073;48.586;12.066;2023-03-18T13:03:37;7.32;;;4.10;;
21820;SDS011;11073;48.586;12.066;2023-03-18T13:06:29;9.27;;;5.32;;
21820;SDS011;11073;48.586;12.066;2023-03-18T13:09:26;8.65;;;4.38;;
21820;SDS011;11073;48.586;12.066;2023-03-18T13:12:26;9.30;;;4.72;;
21820;SDS011;11073;48.586;12.066;2023-03-18T13:15:21;8.35;;;4.30;;
21820;SDS011;11073;48.586;12.066;2023-03-18T13:18:16;8.75;;;4.10;;
21820;SDS011;11073;48.586;12.066;2023-03-18T13:21:08;5.80;;;3.92;;
21820;SDS011;11073;48.586;12.066;2023-03-18T13:27:32;8.15;;;4.28;;
21820;SDS011;11073;48.586;12.066;2023-03-18T13:30:46;8.15;;;4.05;;
21820;SDS011;11073;48.586;12.066;2023-03-18T13:33:56;8.60;;;4.28;;
21820;SDS011;11073;48.586;12.066;2023-03-18T13:37:07;7.85;;;4.05;;
21820;SDS011;11073;48.586;12.066;2023-03-18T13:40:11;6.88;;;4.38;;
21820;SDS011;11073;48.586;12.066;2023-03-18T13:43:16;8.05;;;4.53;;
21820;SDS011;11073;48.586;12.066;2023-03-18T13:46:15;7.10;;;4.07;;
21820;SDS011;11073;48.586;12.066;2023-03-18T13:49:11;9.73;;;4.20;;
21820;SDS011;11073;48.586;12.066;2023-03-18T13:52:17;7.28;;;4.28;;
21820;SDS011;11073;48.586;12.066;2023-03-18T13:55:19;7.72;;;4.20;;
21820;SDS011;11073;48.586;12.066;2023-03-18T13:58:20;6.75;;;4.15;;
21820;SDS011;11073;48.586;12.066;2023-03-18T14:01:25;7.35;;;4.15;;
21820;SDS011;11073;48.586;12.066;2023-03-18T14:04:27;6.70;;;4.32;;
21820;SDS011;11073;48.586;12.066;2023-03-18T14:07:20;7.70;;;4.32;;
21820;SDS011;11073;48.586;12.066;2023-03-18T14:10:16;8.00;;;4.32;;
21820;SDS011;11073;48.586;12.066;2023-03-18T14:13:25;7.05;;;3.97;;
21820;SDS011;11073;48.586;12.066;2023-03-18T14:16:16;6.95;;;4.00;;
21820;SDS011;11073;48.586;12.066;2023-03-18T14:19:13;6.07;;;4.00;;
21820;SDS011;11073;48.586;12.066;2023-03-18T14:22:06;7.13;;;3.92;;
21820;SDS011;11073;48.586;12.066;2023-03-18T14:28:27;5.63;;;3.70;;
21820;SDS011;11073;48.586;12.066;2023-03-18T14:31:19;6.95;;;4.20;;
21820;SDS011;11073;48.586;12.066;2023-03-18T14:34:30;7.30;;;4.18;;
21820;SDS011;11073;48.586;12.066;2023-03-18T14:37:24;6.65;;;4.20;;
21820;SDS011;11073;48.586;12.066;2023-03-18T14:40:16;7.70;;;4.20;;
21820;SDS011;11073;48.586;12.066;2023-03-18T14:43:07;5.72;;;3.78;;
21820;SDS011;11073;48.586;12.066;2023-03-18T14:46:01;7.68;;;4.03;;
21820;SDS011;11073;48.586;12.066;2023-03-18T14:48:53;9.60;;;4.10;;
21820;SDS011;11073;48.586;12.066;2023-03-18T14:51:41;7.88;;;4.00;;
21820;SDS011;11073;48.586;12.066;2023-03-18T14:54:31;5.82;;;3.78;;
21820;SDS011;11073;48.586;12.066;2023-03-18T14:57:25;7.28;;;3.97;;
21820;SDS011;11073;48.586;12.066;2023-03-18T15:00:15;6.72;;;4.15;;
21820;SDS011;11073;48.586;12.066;2023-03-18T15:03:08;6.40;;;3.97;;
21820;SDS011;11073;48.586;12.066;2023-03-18T15:06:05;6.80;;;4.15;;
21820;SDS011;11073;48.586;12.066;2023-03-18T15:08:58;8.00;;;4.43;;
21820;SDS011;11073;48.586;12.066;2023-03-18T15:11:48;4.70;;;3.33;;
21820;SDS011;11073;48.586;12.066;2023-03-18T15:14:38;10.40;;;4.05;;
21820;SDS011;11073;48.586;12.066;2023-03-18T15:17:29;9.23;;;4.07;;
21820;SDS011;11073;48.586;12.066;2023-03-18T15:20:21;5.75;;;3.53;;
21820;SDS011;11073;48.586;12.066;2023-03-18T15:23:10;6.03;;;3.42;;
21820;SDS011;11073;48.586;12.066;2023-03-18T15:26:01;5.60;;;3.60;;
21820;SDS011;11073;48.586;12.066;2023-03-18T15:28:53;7.80;;;4.80;;
21820;SDS011;11073;48.586;12.066;2023-03-18T15:31:43;8.00;;;4.38;;
21820;SDS011;11073;48.586;12.066;2023-03-18T15:34:32;8.80;;;6.65;;
21820;SDS011;11073;48.586;12.066;2023-03-18T15:37:33;10.60;;;7.57;;
21820;SDS011;11073;48.586;12.066;2023-03-18T15:40:27;10.07;;;7.00;;
21820;SDS011;11073;48.586;12.066;2023-03-18T15:43:23;9.05;;;7.15;;
21820;SDS011;11073;48.586;12.066;2023-03-18T15:46:18;10.48;;;7.97;;
21820;SDS011;11073;48.586;12.066;2023-03-18T15:49:12;12.65;;;8.00;;
21820;SDS011;11073;48.586;12.066;2023-03-18T15:52:02;13.85;;;11.07;;
21820;SDS011;11073;48.586;12.066;2023-03-18T15:54:57;12.00;;;9.27;;
21820;SDS011;11073;48.586;12.066;2023-03-18T15:57:45;15.60;;;11.38;;
21820;SDS011;11073;48.586;12.066;2023-03-18T16:00:34;12.32;;;8.88;;
21820;SDS011;11073;48.586;12.066;2023-03-18T16:03:24;10.38;;;8.20;;
21820;SDS011;11073;48.586;12.066;2023-03-18T16:06:15;11.70;;;8.52;;
21820;SDS011;11073;48.586;12.066;2023-03-18T16:09:12;11.90;;;8.30;;
21820;SDS011;11073;48.586;12.066;2023-03-18T16:12:05;8.95;;;7.32;;
21820;SDS011;11073;48.586;12.066;2023-03-18T16:15:01;10.18;;;7.13;;
21820;SDS011;11073;48.586;12.066;2023-03-18T16:17:52;11.95;;;7.88;;
21820;SDS011;11073;48.586;12.066;2023-03-18T16:20:42;10.80;;;7.93;;
21820;SDS011;11073;48.586;12.066;2023-03-18T16:23:32;11.32;;;7.80;;
21820;SDS011;11073;48.586;12.066;2023-03-18T16:26:22;10.82;;;7.95;;
21820;SDS011;11073;48.586;12.066;2023-03-18T16:29:16;13.05;;;8.50;;
21820;SDS011;11073;48.586;12.066;2023-03-18T16:32:08;11.57;;;8.00;;
21820;SDS011;11073;48.586;12.066;2023-03-18T16:35:00;12.23;;;8.20;;
21820;SDS011;11073;48.586;12.066;2023-03-18T16:37:50;13.73;;;8.75;;
21820;SDS011;11073;48.586;12.066;2023-03-18T16:40:41;12.25;;;8.75;;
21820;SDS011;11073;48.586;12.066;2023-03-18T16:43:31;9.70;;;7.47;;
21820;SDS011;11073;48.586;12.066;2023-03-18T16:46:21;14.00;;;8.45;;
21820;SDS011;11073;48.586;12.066;2023-03-18T16:49:13;13.30;;;8.27;;
21820;SDS011;11073;48.586;12.066;2023-03-18T16:52:03;10.50;;;8.20;;
21820;SDS011;11073;48.586;12.066;2023-03-18T16:54:53;16.35;;;8.48;;
21820;SDS011;11073;48.586;12.066;2023-03-18T16:57:43;12.00;;;8.20;;
21820;SDS011;11073;48.586;12.066;2023-03-18T17:00:34;12.68;;;8.73;;
21820;SDS011;11073;48.586;12.066;2023-03-18T17:03:26;13.20;;;9.13;;
21820;SDS011;11073;48.586;12.066;2023-03-18T17:06:16;14.57;;;9.55;;